Terminal Aerodrome Forecast
Issued by NWS

Current Version | Previous Version | Text Only | Print | Product List | Glossary On
Versions: 1 2 3 4 5 6 7 8 9 10 11 12 13 14
000
FTUS46 KSEW 042340
TAFBLI
TAF
KBLI 042340Z 0500/0524 29010KT P6SM SCT040
     FM050100 29007KT P6SM BKN070
     FM050400 00000KT P6SM SCT070
     FM051300 20005KT P6SM SCT003
     FM051800 17010KT P6SM SCT100=

USA.gov is the U.S. government's official web portal to all federal, state and local government web resources and services.